createdAt,value
2018-08-17T00:00:50.623Z,0.00
2018-08-17T00:01:50.718Z,0.00
2018-08-17T00:02:50.820Z,0.00
2018-08-17T00:03:50.918Z,0.00
2018-08-17T00:04:51.011Z,0.00
2018-08-17T00:05:51.108Z,0.00
2018-08-17T00:06:51.210Z,0.00
2018-08-17T00:07:51.305Z,0.00
2018-08-17T00:08:51.402Z,0.00
2018-08-17T00:09:51.496Z,0.00
2018-08-17T00:10:51.594Z,0.00
2018-08-17T00:11:51.692Z,0.00
2018-08-17T00:12:51.792Z,0.00
2018-08-17T00:13:51.890Z,0.00
2018-08-17T00:14:51.988Z,0.00
2018-08-17T00:15:52.084Z,0.00
2018-08-17T00:16:52.182Z,4.00
2018-08-17T00:17:52.279Z,0.00
2018-08-17T00:18:52.375Z,0.00
2018-08-17T00:19:52.474Z,0.00
2018-08-17T00:20:52.570Z,0.00
2018-08-17T00:21:52.670Z,0.00
2018-08-17T00:22:52.766Z,0.00
2018-08-17T00:23:52.863Z,0.00
2018-08-17T00:24:52.964Z,0.00
2018-08-17T00:25:53.059Z,0.00
2018-08-17T00:26:53.158Z,0.00
2018-08-17T00:27:53.252Z,0.00
2018-08-17T00:28:53.344Z,0.00
2018-08-17T00:29:53.443Z,0.00
2018-08-17T00:30:53.539Z,0.00
2018-08-17T00:31:53.636Z,0.00
2018-08-17T00:32:53.732Z,0.00
2018-08-17T00:33:53.830Z,0.00
2018-08-17T00:34:53.928Z,0.00
2018-08-17T00:35:54.025Z,0.00
2018-08-17T00:36:54.120Z,0.00
2018-08-17T00:37:54.217Z,0.00
2018-08-17T00:38:54.316Z,0.00
2018-08-17T00:39:54.413Z,0.00
2018-08-17T00:40:54.520Z,0.00
2018-08-17T00:41:54.611Z,0.00
2018-08-17T00:42:54.710Z,0.00
2018-08-17T00:43:54.805Z,0.00
2018-08-17T00:44:54.902Z,0.00
2018-08-17T00:45:54.999Z,0.00
2018-08-17T00:46:55.098Z,0.00
2018-08-17T00:47:55.199Z,0.00
2018-08-17T00:48:55.291Z,0.00
2018-08-17T00:49:55.388Z,0.00
2018-08-17T00:50:55.485Z,0.00
2018-08-17T00:51:55.580Z,0.00
2018-08-17T00:52:55.679Z,0.00
2018-08-17T00:53:55.782Z,0.00
2018-08-17T00:54:55.881Z,0.00
2018-08-17T00:55:55.979Z,0.00
2018-08-17T00:56:56.077Z,0.00
2018-08-17T00:57:56.173Z,0.00
2018-08-17T00:58:56.271Z,0.00
2018-08-17T00:59:56.367Z,0.00
2018-08-17T01:00:56.464Z,0.00
2018-08-17T01:01:56.567Z,0.00
2018-08-17T01:02:56.661Z,0.00
2018-08-17T01:03:56.759Z,0.00
2018-08-17T01:04:56.858Z,0.00
2018-08-17T01:05:56.954Z,0.00
2018-08-17T01:06:57.050Z,0.00
2018-08-17T01:07:57.143Z,0.00
2018-08-17T01:08:57.248Z,0.00
2018-08-17T01:09:57.346Z,0.00
2018-08-17T01:10:57.443Z,0.00
2018-08-17T01:11:57.540Z,0.00
2018-08-17T01:12:57.638Z,0.00
2018-08-17T01:13:57.736Z,0.00
2018-08-17T01:14:57.832Z,0.00
2018-08-17T01:15:57.926Z,0.00
2018-08-17T01:16:58.023Z,0.00
2018-08-17T01:17:58.123Z,0.00
2018-08-17T01:18:58.219Z,0.00
2018-08-17T01:19:58.312Z,0.00
2018-08-17T01:20:58.431Z,0.00
2018-08-17T01:21:58.526Z,0.00
2018-08-17T01:22:58.623Z,0.00
2018-08-17T01:23:58.719Z,0.00
2018-08-17T01:24:58.814Z,0.00
2018-08-17T01:25:58.914Z,0.00
2018-08-17T01:26:59.008Z,0.00
2018-08-17T01:27:59.108Z,0.00
2018-08-17T01:28:59.203Z,0.00
2018-08-17T01:29:59.299Z,0.00
2018-08-17T01:30:59.392Z,0.00
2018-08-17T01:31:59.489Z,0.00
2018-08-17T01:32:59.585Z,0.00
2018-08-17T01:33:59.681Z,0.00
2018-08-17T01:34:59.775Z,0.00
2018-08-17T01:35:59.875Z,0.00
2018-08-17T01:36:59.975Z,0.00
2018-08-17T01:38:00.068Z,0.00
2018-08-17T01:39:00.164Z,0.00
2018-08-17T01:40:00.260Z,0.00
2018-08-17T01:41:00.364Z,0.00
2018-08-17T01:42:00.460Z,0.00
2018-08-17T01:43:00.558Z,0.00
2018-08-17T01:44:00.655Z,0.00
2018-08-17T01:45:00.750Z,0.00
2018-08-17T01:46:00.846Z,0.00
2018-08-17T01:47:00.948Z,0.00
2018-08-17T01:48:01.042Z,0.00
2018-08-17T01:49:01.136Z,0.00
2018-08-17T01:50:01.232Z,0.00
2018-08-17T01:51:01.327Z,0.00
2018-08-17T01:52:01.424Z,0.00
2018-08-17T01:53:01.521Z,0.00
2018-08-17T01:54:01.617Z,0.00
2018-08-17T01:55:01.714Z,0.00
2018-08-17T01:56:01.815Z,0.00
2018-08-17T01:57:01.903Z,0.00
2018-08-17T01:58:02.003Z,0.00
2018-08-17T01:59:02.099Z,0.00
2018-08-17T02:00:02.195Z,0.00
2018-08-17T02:01:02.299Z,0.00
2018-08-17T02:02:02.393Z,0.00
2018-08-17T02:03:02.488Z,0.00
2018-08-17T02:04:02.584Z,0.00
2018-08-17T02:05:02.680Z,0.00
2018-08-17T02:06:02.778Z,0.00
2018-08-17T02:07:02.874Z,0.00
2018-08-17T02:08:02.971Z,0.00
2018-08-17T02:09:03.068Z,0.00
2018-08-17T02:10:03.167Z,0.00
2018-08-17T02:11:03.261Z,0.00
2018-08-17T02:12:03.357Z,0.00
2018-08-17T02:13:03.452Z,0.00
2018-08-17T02:14:03.551Z,0.00
2018-08-17T02:15:03.643Z,0.00
2018-08-17T02:16:03.738Z,0.00
2018-08-17T02:17:03.834Z,0.00
2018-08-17T02:18:03.929Z,0.00
2018-08-17T02:19:04.030Z,0.00
2018-08-17T02:20:04.121Z,0.00
2018-08-17T02:21:04.225Z,0.00
2018-08-17T02:22:04.317Z,0.00
2018-08-17T02:23:04.412Z,0.00
2018-08-17T02:24:04.508Z,0.00
2018-08-17T02:25:04.604Z,0.00
2018-08-17T02:26:04.704Z,0.00
2018-08-17T02:27:04.803Z,0.00
2018-08-17T02:28:04.901Z,0.00
2018-08-17T02:29:05.002Z,0.00
2018-08-17T02:30:05.109Z,0.00
2018-08-17T02:31:05.202Z,0.00
2018-08-17T02:32:05.300Z,0.00
2018-08-17T02:33:05.395Z,0.00
2018-08-17T02:34:05.484Z,0.00
2018-08-17T02:35:05.575Z,0.00
2018-08-17T02:36:05.666Z,0.00
2018-08-17T02:37:05.759Z,0.00
2018-08-17T02:38:05.854Z,0.00
2018-08-17T02:39:05.953Z,0.00
2018-08-17T02:40:06.045Z,0.00
2018-08-17T02:41:06.131Z,0.00
2018-08-17T02:42:06.228Z,0.00
2018-08-17T02:43:06.320Z,24.00
2018-08-17T02:44:06.426Z,0.00
2018-08-17T02:45:06.511Z,0.00
2018-08-17T02:46:06.593Z,0.00
2018-08-17T02:47:06.699Z,0.00
2018-08-17T02:48:06.797Z,0.00
2018-08-17T02:49:06.898Z,0.00
2018-08-17T02:50:06.987Z,0.00
2018-08-17T02:51:07.079Z,0.00
2018-08-17T02:52:07.160Z,0.00
2018-08-17T02:53:07.247Z,0.00
2018-08-17T02:54:07.340Z,0.00
2018-08-17T02:55:07.444Z,0.00
2018-08-17T02:56:07.535Z,0.00
2018-08-17T02:57:07.631Z,0.00
2018-08-17T02:58:07.731Z,0.00
2018-08-17T02:59:07.839Z,0.00
2018-08-17T03:00:07.931Z,0.00
2018-08-17T03:01:08.039Z,0.00
2018-08-17T03:02:08.145Z,0.00
2018-08-17T03:03:08.236Z,0.00
2018-08-17T03:04:08.331Z,0.00
2018-08-17T03:05:08.438Z,0.00
2018-08-17T03:06:08.538Z,0.00
2018-08-17T03:07:08.629Z,0.00
2018-08-17T03:08:08.721Z,0.00
2018-08-17T03:09:08.815Z,0.00
2018-08-17T03:10:08.900Z,0.00
2018-08-17T03:11:09.006Z,0.00
2018-08-17T03:12:09.099Z,0.00
2018-08-17T03:13:09.205Z,0.00
2018-08-17T03:14:09.294Z,0.00
2018-08-17T03:15:09.394Z,0.00
2018-08-17T03:16:09.491Z,0.00
2018-08-17T03:17:09.584Z,0.00
2018-08-17T03:18:09.677Z,0.00
2018-08-17T03:19:09.773Z,0.00
2018-08-17T03:20:09.870Z,0.00
2018-08-17T03:21:09.965Z,0.00
2018-08-17T03:22:10.064Z,0.00
2018-08-17T03:23:10.158Z,0.00
2018-08-17T03:24:10.267Z,0.00
2018-08-17T03:25:10.352Z,0.00
2018-08-17T03:26:10.446Z,0.00
2018-08-17T03:27:10.551Z,0.00
2018-08-17T03:28:10.648Z,0.00
2018-08-17T03:29:10.744Z,0.00
2018-08-17T03:30:10.833Z,0.00
2018-08-17T03:31:10.923Z,0.00
2018-08-17T03:32:11.010Z,0.00
2018-08-17T03:33:11.104Z,4.00
2018-08-17T03:34:11.202Z,4.00
2018-08-17T03:35:11.304Z,4.00
2018-08-17T03:36:11.402Z,4.00
2018-08-17T03:37:11.514Z,4.00
2018-08-17T03:38:11.705Z,4.00
2018-08-17T03:39:11.686Z,0.00
2018-08-17T03:40:11.786Z,4.00
2018-08-17T03:41:11.876Z,4.00
2018-08-17T03:42:11.975Z,4.00
2018-08-17T03:43:12.074Z,8.00
2018-08-17T03:44:12.174Z,8.00
2018-08-17T03:45:12.274Z,8.00
2018-08-17T03:46:12.359Z,8.00
2018-08-17T03:47:12.461Z,8.00
2018-08-17T03:48:12.564Z,12.00
2018-08-17T03:49:12.666Z,12.00
2018-08-17T03:50:12.757Z,12.00
2018-08-17T03:51:12.855Z,16.00
2018-08-17T03:52:12.951Z,16.00
2018-08-17T03:53:13.051Z,20.00
2018-08-17T03:54:13.148Z,20.00
2018-08-17T03:55:13.241Z,24.00
2018-08-17T03:56:13.347Z,28.00
2018-08-17T03:57:13.445Z,32.00
2018-08-17T03:58:13.543Z,36.00
2018-08-17T03:59:13.636Z,40.00
2018-08-17T04:00:13.730Z,44.00
2018-08-17T04:01:13.825Z,52.00
2018-08-17T04:02:13.927Z,60.00
2018-08-17T04:03:14.023Z,68.00
2018-08-17T04:04:14.124Z,80.00
2018-08-17T04:05:14.216Z,96.00
2018-08-17T04:06:14.309Z,112.00
2018-08-17T04:07:14.417Z,124.00
2018-08-17T04:08:14.510Z,136.00
2018-08-17T04:09:14.608Z,144.00
2018-08-17T04:10:14.706Z,148.00
2018-08-17T04:11:14.802Z,160.00
2018-08-17T04:12:14.900Z,168.00
2018-08-17T04:13:15.010Z,184.00
2018-08-17T04:14:15.108Z,200.00
2018-08-17T04:15:15.204Z,220.00
2018-08-17T04:16:15.302Z,240.00
2018-08-17T04:17:15.396Z,264.00
2018-08-17T04:18:15.495Z,288.00
2018-08-17T04:19:15.596Z,308.00
2018-08-17T04:20:15.689Z,320.00
2018-08-17T04:21:15.789Z,344.00
2018-08-17T04:22:15.884Z,368.00
2018-08-17T04:23:15.985Z,396.00
2018-08-17T04:24:16.080Z,420.00
2018-08-17T04:25:16.176Z,448.00
2018-08-17T04:26:16.272Z,468.00
2018-08-17T04:27:16.370Z,496.00
2018-08-17T04:28:16.467Z,532.00
2018-08-17T04:29:16.563Z,580.00
2018-08-17T04:30:16.662Z,636.00
2018-08-17T04:31:16.757Z,672.00
2018-08-17T04:32:16.856Z,704.00
2018-08-17T04:33:16.961Z,748.00
2018-08-17T04:34:17.068Z,812.00
2018-08-17T04:35:17.187Z,908.00
2018-08-17T04:36:17.261Z,936.00
2018-08-17T04:37:17.359Z,932.00
2018-08-17T04:38:17.467Z,944.00
2018-08-17T04:39:17.554Z,984.00
2018-08-17T04:40:17.652Z,1080.00
2018-08-17T04:41:17.750Z,1176.00
2018-08-17T04:42:17.844Z,1220.00
2018-08-17T04:43:17.942Z,1228.00
2018-08-17T04:44:18.039Z,1204.00
2018-08-17T04:45:18.139Z,1260.00
2018-08-17T04:46:18.239Z,1368.00
2018-08-17T04:47:18.333Z,1404.00
2018-08-17T04:48:18.439Z,1464.00
2018-08-17T04:49:18.605Z,1548.00
2018-08-17T04:50:18.635Z,1612.00
2018-08-17T04:51:18.734Z,1652.00
2018-08-17T04:52:18.830Z,1688.00
2018-08-17T04:53:18.923Z,1728.00
2018-08-17T04:54:19.023Z,1816.00
2018-08-17T04:55:19.120Z,1900.00
2018-08-17T04:56:19.217Z,1948.00
2018-08-17T04:57:19.311Z,1988.00
2018-08-17T04:58:19.411Z,2040.00
2018-08-17T04:59:19.508Z,2068.00
2018-08-17T05:00:19.606Z,2076.00
2018-08-17T05:01:19.713Z,2032.00
2018-08-17T05:02:19.814Z,1996.00
2018-08-17T05:03:19.915Z,1824.00
2018-08-17T05:04:20.006Z,1824.00
2018-08-17T05:05:20.104Z,1904.00
2018-08-17T05:06:20.202Z,1780.00
2018-08-17T05:07:20.299Z,1808.00
2018-08-17T05:08:20.396Z,1896.00
2018-08-17T05:09:20.495Z,1892.00
2018-08-17T05:10:20.590Z,1816.00
2018-08-17T05:11:20.689Z,1816.00
2018-08-17T05:12:20.785Z,1796.00
2018-08-17T05:13:20.882Z,1772.00
2018-08-17T05:14:20.980Z,1716.00
2018-08-17T05:15:21.077Z,1596.00
2018-08-17T05:16:21.172Z,1552.00
2018-08-17T05:17:21.288Z,1592.00
2018-08-17T05:18:21.369Z,1704.00
2018-08-17T05:19:21.468Z,1744.00
2018-08-17T05:20:21.568Z,1840.00
2018-08-17T05:21:21.671Z,1912.00
2018-08-17T05:22:21.767Z,1976.00
2018-08-17T05:23:21.871Z,2068.00
2018-08-17T05:24:21.959Z,2080.00
2018-08-17T05:25:22.057Z,2088.00
2018-08-17T05:26:22.156Z,2104.00
2018-08-17T05:27:22.251Z,2072.00
2018-08-17T05:28:22.362Z,2080.00
2018-08-17T05:29:22.460Z,2132.00
2018-08-17T05:30:22.560Z,2188.00
2018-08-17T05:31:22.663Z,2324.00
2018-08-17T05:32:22.765Z,2380.00
2018-08-17T05:33:22.858Z,2360.00
2018-08-17T05:34:22.957Z,2428.00
2018-08-17T05:35:23.089Z,2428.00
2018-08-17T05:36:23.178Z,2420.00
2018-08-17T05:37:23.274Z,2512.00
2018-08-17T05:38:23.373Z,2628.00
2018-08-17T05:39:23.471Z,2684.00
2018-08-17T05:40:23.573Z,2680.00
2018-08-17T05:41:23.667Z,2712.00
2018-08-17T05:42:23.766Z,2772.00
2018-08-17T05:43:23.862Z,2808.00
2018-08-17T05:44:23.958Z,2948.00
2018-08-17T05:45:24.057Z,3092.00
2018-08-17T05:46:24.175Z,3300.00
2018-08-17T05:47:24.270Z,3256.00
2018-08-17T05:48:24.373Z,3164.00
2018-08-17T05:49:24.476Z,3444.00
2018-08-17T05:50:24.569Z,3356.00
2018-08-17T05:51:24.668Z,3468.00
2018-08-17T05:52:24.767Z,3656.00
2018-08-17T05:53:24.864Z,3552.00
2018-08-17T05:54:24.965Z,3592.00
2018-08-17T05:55:25.064Z,3440.00
2018-08-17T05:56:25.160Z,3396.00
2018-08-17T05:57:25.264Z,3484.00
2018-08-17T05:58:25.363Z,3524.00
2018-08-17T05:59:25.463Z,3752.00
2018-08-17T06:00:25.558Z,4020.00
2018-08-17T06:01:25.656Z,4020.00
2018-08-17T06:02:25.758Z,3948.00
2018-08-17T06:03:25.855Z,3948.00
2018-08-17T06:04:25.950Z,4052.00
2018-08-17T06:05:26.050Z,4240.00
2018-08-17T06:06:26.146Z,4112.00
2018-08-17T06:07:26.248Z,4388.00
2018-08-17T06:08:26.348Z,5188.00
2018-08-17T06:09:26.440Z,7452.00
2018-08-17T06:10:26.537Z,9648.00
2018-08-17T06:11:26.700Z,12184.00
2018-08-17T06:12:26.733Z,17728.00
2018-08-17T06:13:26.831Z,17792.00
2018-08-17T06:14:26.932Z,17408.00
2018-08-17T06:15:27.029Z,17280.00
2018-08-17T06:16:27.145Z,14656.00
2018-08-17T06:17:27.245Z,11228.00
2018-08-17T06:18:27.345Z,17088.00
2018-08-17T06:19:27.444Z,17760.00
2018-08-17T06:20:27.541Z,15648.00
2018-08-17T06:21:27.642Z,8324.00
2018-08-17T06:22:27.749Z,13504.00
2018-08-17T06:23:27.846Z,7420.00
2018-08-17T06:24:27.947Z,13728.00
2018-08-17T06:25:28.052Z,16640.00
2018-08-17T06:26:28.153Z,16416.00
2018-08-17T06:27:28.265Z,15616.00
2018-08-17T06:28:28.351Z,11904.00
2018-08-17T06:29:28.458Z,7040.00
2018-08-17T06:30:28.570Z,13984.00
2018-08-17T06:31:28.672Z,13984.00
2018-08-17T06:32:28.770Z,11668.00
2018-08-17T06:33:28.879Z,12160.00
2018-08-17T06:34:29.092Z,5740.00
2018-08-17T06:35:29.088Z,7616.00
2018-08-17T06:36:29.197Z,16160.00
2018-08-17T06:37:29.300Z,16608.00
2018-08-17T06:38:29.398Z,15840.00
2018-08-17T06:39:29.495Z,14016.00
2018-08-17T06:40:29.604Z,15712.00
2018-08-17T06:41:29.706Z,17248.00
2018-08-17T06:42:29.807Z,16512.00
2018-08-17T06:43:29.910Z,14752.00
2018-08-17T06:44:29.996Z,13952.00
2018-08-17T06:45:30.100Z,12548.00
2018-08-17T06:46:30.204Z,14272.00
2018-08-17T06:47:30.324Z,13888.00
2018-08-17T06:48:30.423Z,12672.00
2018-08-17T06:49:30.528Z,11840.00
2018-08-17T06:50:30.671Z,12544.00
2018-08-17T06:51:30.734Z,12648.00
2018-08-17T06:52:30.834Z,13600.00
2018-08-17T06:53:30.945Z,13088.00
2018-08-17T06:54:31.031Z,12544.00
2018-08-17T06:55:32.054Z,12192.00
2018-08-17T06:56:31.282Z,11884.00
2018-08-17T06:57:31.381Z,12112.00
2018-08-17T06:58:31.487Z,12196.00
2018-08-17T06:59:31.597Z,11664.00
2018-08-17T07:00:31.698Z,11652.00
2018-08-17T07:01:31.793Z,11196.00
2018-08-17T07:02:31.905Z,9240.00
2018-08-17T07:03:31.997Z,6848.00
2018-08-17T07:04:32.100Z,5768.00
2018-08-17T07:05:32.192Z,5640.00
2018-08-17T07:06:32.322Z,5540.00
2018-08-17T07:07:32.420Z,5560.00
2018-08-17T07:08:32.532Z,5488.00
2018-08-17T07:09:32.660Z,5476.00
2018-08-17T07:10:32.734Z,5600.00
2018-08-17T07:11:32.853Z,5296.00
2018-08-17T07:12:32.956Z,5756.00
2018-08-17T07:13:33.064Z,5872.00
2018-08-17T07:14:33.165Z,5940.00
2018-08-17T07:15:33.271Z,5960.00
2018-08-17T07:16:33.441Z,5852.00
2018-08-17T07:17:33.498Z,5288.00
2018-08-17T07:18:33.622Z,4892.00
2018-08-17T07:19:33.730Z,5160.00
2018-08-17T07:20:33.835Z,4928.00
2018-08-17T07:21:33.984Z,4772.00
2018-08-17T07:22:34.056Z,4760.00
2018-08-17T07:23:34.172Z,5524.00
2018-08-17T07:24:34.275Z,6080.00
2018-08-17T07:25:34.383Z,6076.00
2018-08-17T07:26:34.490Z,5864.00
2018-08-17T07:27:34.614Z,5232.00
2018-08-17T07:28:34.772Z,4788.00
2018-08-17T07:29:34.805Z,4980.00
2018-08-17T07:30:34.915Z,4796.00
2018-08-17T07:31:35.018Z,5104.00
2018-08-17T07:32:35.120Z,4884.00
2018-08-17T07:33:35.223Z,5816.00
2018-08-17T07:34:35.324Z,5492.00
2018-08-17T07:35:35.428Z,5492.00
2018-08-17T07:36:35.550Z,5052.00
2018-08-17T07:37:35.663Z,5056.00
2018-08-17T07:38:35.768Z,5300.00
2018-08-17T07:39:35.906Z,5028.00
2018-08-17T07:40:36.008Z,5056.00
2018-08-17T07:41:36.154Z,5100.00
2018-08-17T07:42:36.244Z,5396.00
2018-08-17T07:43:36.334Z,5404.00
2018-08-17T07:44:36.438Z,4824.00
2018-08-17T07:45:36.543Z,4900.00
2018-08-17T07:46:36.645Z,5876.00
2018-08-17T07:47:36.751Z,6028.00
2018-08-17T07:48:36.858Z,6276.00
2018-08-17T07:49:36.957Z,5572.00
2018-08-17T07:50:37.073Z,5640.00
2018-08-17T07:51:37.171Z,5852.00
2018-08-17T07:52:37.269Z,5852.00
2018-08-17T07:53:37.370Z,7264.00
2018-08-17T07:54:37.473Z,5952.00
2018-08-17T07:55:37.577Z,5916.00
2018-08-17T07:56:37.680Z,6988.00
2018-08-17T07:57:37.785Z,7212.00
2018-08-17T07:58:37.886Z,7104.00
2018-08-17T07:59:37.991Z,6952.00
2018-08-17T08:00:38.096Z,6540.00
2018-08-17T08:01:38.209Z,5316.00
2018-08-17T08:02:38.313Z,5116.00
2018-08-17T08:03:38.422Z,5744.00
2018-08-17T08:04:38.541Z,4816.00
2018-08-17T08:05:38.644Z,4724.00
2018-08-17T08:06:38.748Z,4696.00
2018-08-17T08:07:38.849Z,5076.00
2018-08-17T08:08:38.942Z,4724.00
2018-08-17T08:09:39.052Z,5236.00
2018-08-17T08:10:39.159Z,5308.00
2018-08-17T08:11:39.263Z,5608.00
2018-08-17T08:12:39.362Z,5652.00
2018-08-17T08:13:39.535Z,4900.00
2018-08-17T08:14:39.601Z,4896.00
2018-08-17T08:15:39.703Z,5680.00
2018-08-17T08:16:39.789Z,5008.00
2018-08-17T08:17:39.887Z,5360.00
2018-08-17T08:18:39.987Z,6220.00
2018-08-17T08:19:40.093Z,6012.00
2018-08-17T08:20:40.186Z,6216.00
2018-08-17T08:21:40.291Z,5700.00
2018-08-17T08:22:40.392Z,5928.00
2018-08-17T08:23:40.500Z,5276.00
2018-08-17T08:24:40.603Z,5664.00
2018-08-17T08:25:40.709Z,6112.00
2018-08-17T08:26:40.811Z,6284.00
2018-08-17T08:27:40.903Z,5632.00
2018-08-17T08:28:41.007Z,5748.00
2018-08-17T08:29:41.111Z,5996.00
2018-08-17T08:30:41.211Z,6268.00
2018-08-17T08:31:41.306Z,6412.00
2018-08-17T08:32:41.419Z,7864.00
2018-08-17T08:33:41.519Z,6860.00
2018-08-17T08:34:41.637Z,6852.00
2018-08-17T08:35:41.751Z,6948.00
2018-08-17T08:36:41.854Z,7168.00
2018-08-17T08:37:41.963Z,7728.00
2018-08-17T08:38:42.051Z,7208.00
2018-08-17T08:39:42.193Z,6488.00
2018-08-17T08:40:42.250Z,6224.00
2018-08-17T08:41:42.450Z,6320.00
2018-08-17T08:42:42.428Z,6388.00
2018-08-17T08:43:42.530Z,6720.00
2018-08-17T08:44:42.633Z,7372.00
2018-08-17T08:45:43.565Z,7968.00
2018-08-17T08:46:42.874Z,7576.00
2018-08-17T08:47:42.977Z,7744.00
2018-08-17T08:48:43.100Z,8336.00
2018-08-17T08:49:43.203Z,7212.00
2018-08-17T08:50:43.307Z,8092.00
2018-08-17T08:51:43.420Z,7648.00
2018-08-17T08:52:43.528Z,8068.00
2018-08-17T08:53:43.631Z,8144.00
2018-08-17T08:54:43.736Z,8200.00
2018-08-17T08:55:43.872Z,8116.00
2018-08-17T08:56:43.943Z,6728.00
2018-08-17T08:57:44.043Z,7704.00
2018-08-17T08:58:44.148Z,7432.00
2018-08-17T08:59:44.256Z,6700.00
2018-08-17T09:00:44.360Z,6664.00
2018-08-17T09:01:44.559Z,7824.00
2018-08-17T09:02:44.564Z,7968.00
2018-08-17T09:03:44.661Z,7496.00
2018-08-17T09:04:44.763Z,8500.00
2018-08-17T09:05:44.867Z,8548.00
2018-08-17T09:06:44.971Z,7400.00
2018-08-17T09:07:45.074Z,7632.00
2018-08-17T09:08:45.179Z,7608.00
2018-08-17T09:09:45.282Z,7576.00
2018-08-17T09:10:45.377Z,7732.00
2018-08-17T09:11:45.477Z,8376.00
2018-08-17T09:12:45.581Z,7500.00
2018-08-17T09:13:45.718Z,7780.00
2018-08-17T09:14:45.790Z,6984.00
2018-08-17T09:15:45.894Z,7240.00
2018-08-17T09:16:46.000Z,7568.00
2018-08-17T09:17:46.106Z,6992.00
2018-08-17T09:18:46.248Z,7400.00
2018-08-17T09:19:46.310Z,7264.00
2018-08-17T09:20:46.438Z,6968.00
2018-08-17T09:21:46.520Z,5928.00
2018-08-17T09:22:46.622Z,6504.00
2018-08-17T09:23:46.732Z,6444.00
2018-08-17T09:24:46.830Z,5812.00
2018-08-17T09:25:46.936Z,6048.00
2018-08-17T09:26:47.041Z,5848.00
2018-08-17T09:27:47.168Z,6372.00
2018-08-17T09:28:47.252Z,7312.00
2018-08-17T09:29:47.356Z,7304.00
2018-08-17T09:30:47.454Z,6048.00
2018-08-17T09:31:47.575Z,7540.00
2018-08-17T09:32:47.677Z,7824.00
2018-08-17T09:33:47.781Z,7740.00
2018-08-17T09:34:47.886Z,7584.00
2018-08-17T09:35:47.989Z,7244.00
2018-08-17T09:36:48.092Z,6940.00
2018-08-17T09:37:48.198Z,6800.00
2018-08-17T09:38:48.301Z,6588.00
2018-08-17T09:39:48.403Z,6272.00
2018-08-17T09:40:48.504Z,6532.00
2018-08-17T09:41:48.635Z,6456.00
2018-08-17T09:42:48.713Z,6540.00
2018-08-17T09:43:48.816Z,6456.00
2018-08-17T09:44:48.920Z,6324.00
2018-08-17T09:45:49.023Z,6300.00
2018-08-17T09:46:49.124Z,6576.00
2018-08-17T09:47:49.231Z,6456.00
2018-08-17T09:48:49.334Z,6284.00
2018-08-17T09:49:49.439Z,6308.00
2018-08-17T09:50:49.543Z,6032.00
2018-08-17T09:51:49.644Z,6100.00
2018-08-17T09:52:49.749Z,6068.00
2018-08-17T09:53:49.848Z,6264.00
2018-08-17T09:54:49.946Z,6072.00
2018-08-17T09:55:50.050Z,6044.00
2018-08-17T09:56:50.157Z,6180.00
2018-08-17T09:57:50.260Z,6180.00
2018-08-17T09:58:50.371Z,6284.00
2018-08-17T09:59:50.473Z,6400.00
2018-08-17T10:00:50.566Z,6512.00
2018-08-17T10:01:50.676Z,6572.00
2018-08-17T10:02:50.779Z,6692.00
2018-08-17T10:03:50.960Z,6656.00
2018-08-17T10:04:50.988Z,7444.00
2018-08-17T10:05:51.094Z,6992.00
2018-08-17T10:06:51.200Z,6108.00
2018-08-17T10:07:51.306Z,5460.00
2018-08-17T10:08:51.415Z,5660.00
2018-08-17T10:09:51.525Z,6744.00
2018-08-17T10:10:51.627Z,7076.00
2018-08-17T10:11:51.731Z,7460.00
2018-08-17T10:12:51.835Z,7332.00
2018-08-17T10:13:51.940Z,6108.00
2018-08-17T10:14:52.053Z,6436.00
2018-08-17T10:15:52.178Z,6216.00
2018-08-17T10:16:52.262Z,6752.00
2018-08-17T10:17:52.375Z,6740.00
2018-08-17T10:18:52.474Z,6248.00
2018-08-17T10:19:52.586Z,6476.00
2018-08-17T10:20:52.838Z,6068.00
2018-08-17T10:21:53.137Z,6064.00
2018-08-17T10:22:52.889Z,5700.00
2018-08-17T10:23:52.990Z,5788.00
2018-08-17T10:24:53.095Z,5644.00
2018-08-17T10:25:53.200Z,5736.00
2018-08-17T10:26:53.304Z,5672.00
2018-08-17T10:27:53.407Z,5392.00
2018-08-17T10:28:53.512Z,5916.00
2018-08-17T10:29:53.608Z,5800.00
2018-08-17T10:30:53.710Z,5716.00
2018-08-17T10:31:53.813Z,5344.00
2018-08-17T10:32:53.918Z,5720.00
2018-08-17T10:33:54.070Z,5816.00
2018-08-17T10:34:54.129Z,5992.00
2018-08-17T10:35:54.235Z,6328.00
2018-08-17T10:36:54.332Z,6568.00
2018-08-17T10:37:54.444Z,6368.00
2018-08-17T10:38:54.549Z,5996.00
2018-08-17T10:39:54.654Z,5672.00
2018-08-17T10:40:54.809Z,6000.00
2018-08-17T10:41:54.869Z,5888.00
2018-08-17T10:42:54.967Z,5120.00
2018-08-17T10:43:55.072Z,5476.00
2018-08-17T10:44:55.175Z,5600.00
2018-08-17T10:45:55.279Z,5812.00
2018-08-17T10:46:55.386Z,5748.00
2018-08-17T10:47:55.486Z,5884.00
2018-08-17T10:48:55.728Z,6044.00
2018-08-17T10:49:55.698Z,6080.00
2018-08-17T10:50:55.821Z,6296.00
2018-08-17T10:51:55.923Z,5788.00
2018-08-17T10:52:56.030Z,5984.00
2018-08-17T10:53:56.135Z,5188.00
2018-08-17T10:54:56.236Z,4988.00
2018-08-17T10:55:56.342Z,5320.00
2018-08-17T10:56:56.446Z,5964.00
2018-08-17T10:57:56.555Z,6340.00
2018-08-17T10:58:56.663Z,6360.00
2018-08-17T10:59:56.760Z,6060.00
2018-08-17T11:00:56.864Z,6252.00
2018-08-17T11:01:56.968Z,6384.00
2018-08-17T11:02:57.075Z,8624.00
2018-08-17T11:03:57.182Z,6416.00
2018-08-17T11:04:57.286Z,6324.00
2018-08-17T11:05:57.381Z,6356.00
2018-08-17T11:06:57.492Z,6232.00
2018-08-17T11:07:57.599Z,6296.00
2018-08-17T11:08:57.709Z,6440.00
2018-08-17T11:09:57.813Z,6168.00
2018-08-17T11:10:57.930Z,6064.00
2018-08-17T11:11:58.020Z,6008.00
2018-08-17T11:12:58.121Z,6220.00
2018-08-17T11:13:58.224Z,5904.00
2018-08-17T11:14:58.335Z,6000.00
2018-08-17T11:15:58.440Z,6008.00
2018-08-17T11:16:58.613Z,6052.00
2018-08-17T11:17:58.649Z,5960.00
2018-08-17T11:18:58.750Z,5944.00
2018-08-17T11:19:58.865Z,5912.00
2018-08-17T11:20:58.968Z,5808.00
2018-08-17T11:21:59.076Z,5768.00
2018-08-17T11:22:59.260Z,5692.00
2018-08-17T11:23:59.301Z,5676.00
2018-08-17T11:24:59.408Z,5720.00
2018-08-17T11:25:59.512Z,5628.00
2018-08-17T11:26:59.616Z,5608.00
2018-08-17T11:27:59.720Z,5604.00
2018-08-17T11:28:59.821Z,5608.00
2018-08-17T11:29:59.925Z,5640.00
2018-08-17T11:31:00.035Z,5632.00
2018-08-17T11:32:00.145Z,5572.00
2018-08-17T11:33:00.242Z,5576.00
2018-08-17T11:34:00.347Z,5620.00
2018-08-17T11:35:00.448Z,5596.00
2018-08-17T11:36:00.563Z,5564.00
2018-08-17T11:37:00.671Z,5988.00
2018-08-17T11:38:00.781Z,5688.00
2018-08-17T11:39:00.888Z,5516.00
2018-08-17T11:40:00.992Z,5548.00
2018-08-17T11:41:01.093Z,5476.00
2018-08-17T11:42:01.210Z,5416.00
2018-08-17T11:43:01.312Z,5552.00
2018-08-17T11:44:01.414Z,5400.00
2018-08-17T11:45:01.512Z,5408.00
2018-08-17T11:46:01.618Z,5792.00
2018-08-17T11:47:01.724Z,5484.00
2018-08-17T11:48:01.827Z,7064.00
2018-08-17T11:49:01.917Z,5500.00
2018-08-17T11:50:02.025Z,5500.00
2018-08-17T11:51:02.143Z,5520.00
2018-08-17T11:52:02.247Z,5536.00
2018-08-17T11:53:02.342Z,5788.00
2018-08-17T11:54:02.508Z,5548.00
2018-08-17T11:55:02.562Z,5536.00
2018-08-17T11:56:02.665Z,5536.00
2018-08-17T11:57:02.765Z,5536.00
2018-08-17T11:58:02.870Z,5528.00
2018-08-17T11:59:02.977Z,5520.00
2018-08-17T12:00:03.091Z,5504.00
2018-08-17T12:01:03.189Z,6280.00
2018-08-17T12:02:03.391Z,5472.00
2018-08-17T12:03:03.399Z,5448.00
2018-08-17T12:04:03.507Z,5452.00
2018-08-17T12:05:03.609Z,5432.00
2018-08-17T12:06:03.716Z,5432.00
2018-08-17T12:07:03.822Z,5432.00
2018-08-17T12:08:03.993Z,5484.00
2018-08-17T12:09:04.044Z,5452.00
2018-08-17T12:10:04.148Z,5464.00
2018-08-17T12:11:04.261Z,5444.00
2018-08-17T12:12:04.368Z,5484.00
2018-08-17T12:13:04.472Z,5508.00
2018-08-17T12:14:04.584Z,5524.00
2018-08-17T12:15:04.688Z,5496.00
2018-08-17T12:16:04.797Z,5496.00
2018-08-17T12:17:04.912Z,5528.00
2018-08-17T12:18:05.011Z,5508.00
2018-08-17T12:19:05.122Z,5504.00
2018-08-17T12:20:05.228Z,5560.00
2018-08-17T12:21:05.321Z,5460.00
2018-08-17T12:22:05.426Z,5512.00
2018-08-17T12:23:05.539Z,5484.00
2018-08-17T12:24:05.643Z,5496.00
2018-08-17T12:25:05.778Z,5448.00
2018-08-17T12:26:05.853Z,5476.00
2018-08-17T12:27:05.961Z,5524.00
2018-08-17T12:28:06.070Z,5516.00
2018-08-17T12:29:06.178Z,5596.00